Time,TemperatureF,DewpointF,PressureIn,WindDirection,WindDirectionDegrees,WindSpeedMPH,WindSpeedGustMPH,Humidity,HourlyPrecipIn,Conditions,Clouds,dailyrainin,SoftwareType,DateUTC
2014-01-21 00:01:00,63.0,58.7,30.06,South,180,0.0,0.0,86,0.00,,,0.00,VISReader,2014-01-21 05:01:00,
2014-01-21 00:02:00,63.0,58.7,30.06,South,180,0.0,0.0,86,0.00,,,0.00,VISReader,2014-01-21 05:02:00,
2014-01-21 00:05:00,63.0,58.7,30.06,South,180,0.0,0.0,86,0.00,,,0.00,VISReader,2014-01-21 05:05:00,
2014-01-21 00:10:00,62.8,58.5,30.06,South,180,0.0,0.0,86,0.00,,,0.00,VISReader,2014-01-21 05:10:00,
2014-01-21 00:15:00,62.8,58.2,30.05,South,180,0.0,0.0,85,0.00,,,0.00,VISReader,2014-01-21 05:15:00,
2014-01-21 00:20:00,62.8,58.2,30.05,South,180,0.0,0.0,85,0.00,,,0.00,VISReader,2014-01-21 05:20:00,
2014-01-21 00:25:00,62.6,58.3,30.05,South,180,0.0,0.0,86,0.00,,,0.00,VISReader,2014-01-21 05:25:00,
2014-01-21 00:30:00,62.6,58.3,30.05,South,180,0.0,0.0,86,0.00,,,0.00,VISReader,2014-01-21 05:30:00,
2014-01-21 00:36:00,62.4,58.2,30.04,South,180,0.0,0.0,86,0.00,,,0.00,VISReader,2014-01-21 05:36:00,
2014-01-21 00:41:00,62.2,58.0,30.04,South,180,0.0,0.0,86,0.00,,,0.00,VISReader,2014-01-21 05:41:00,
2014-01-21 00:46:00,62.2,58.0,30.04,South,180,0.0,0.0,86,0.00,,,0.00,VISReader,2014-01-21 05:46:00,
2014-01-21 00:51:00,62.2,58.3,30.04,South,180,0.0,0.0,87,0.00,,,0.00,VISReader,2014-01-21 05:51:00,
2014-01-21 00:56:00,62.1,58.2,30.04,South,180,0.0,0.0,87,0.00,,,0.00,VISReader,2014-01-21 05:56:00,
2014-01-21 01:01:00,62.1,58.2,30.04,South,180,0.0,0.0,87,0.00,,,0.00,VISReader,2014-01-21 06:01:00,
2014-01-21 01:06:00,62.1,58.5,30.04,South,180,0.0,0.0,88,0.00,,,0.00,VISReader,2014-01-21 06:06:00,
2014-01-21 01:07:00,62.1,58.5,30.04,South,180,0.0,0.0,88,0.00,,,0.00,VISReader,2014-01-21 06:07:00,
2014-01-21 01:12:00,62.1,58.5,30.04,WSW,247,0.0,0.0,88,0.00,,,0.00,VISReader,2014-01-21 06:12:00,
2014-01-21 01:17:00,62.1,58.5,30.04,South,180,0.0,0.0,88,0.00,,,0.00,VISReader,2014-01-21 06:17:00,
2014-01-21 01:22:00,62.1,58.2,30.04,SSE,157,0.0,0.0,87,0.00,,,0.00,VISReader,2014-01-21 06:22:00,
2014-01-21 01:28:00,62.1,58.2,30.04,SSE,157,0.0,0.0,87,0.00,,,0.00,VISReader,2014-01-21 06:28:00,
2014-01-21 01:33:00,61.9,58.0,30.04,South,180,0.0,0.0,87,0.00,,,0.00,VISReader,2014-01-21 06:33:00,
2014-01-21 01:38:00,61.9,58.0,30.03,NNW,337,0.0,0.0,87,0.00,,,0.00,VISReader,2014-01-21 06:38:00,
2014-01-21 01:43:00,61.9,58.0,30.03,West,270,0.0,0.0,87,0.00,,,0.00,VISReader,2014-01-21 06:43:00,
2014-01-21 01:48:00,61.7,57.8,30.04,West,270,0.0,0.0,87,0.00,,,0.00,VISReader,2014-01-21 06:48:00,
2014-01-21 01:53:00,61.7,57.8,30.04,WSW,247,0.0,0.0,87,0.00,,,0.00,VISReader,2014-01-21 06:53:00,
2014-01-21 01:59:00,61.7,57.8,30.04,WSW,247,0.0,0.0,87,0.00,,,0.00,VISReader,2014-01-21 06:59:00,
2014-01-21 02:04:00,61.7,57.8,30.03,West,270,0.0,0.0,87,0.00,,,0.00,VISReader,2014-01-21 07:04:00,
2014-01-21 02:09:00,61.7,57.8,30.03,West,270,0.0,0.0,87,0.00,,,0.00,VISReader,2014-01-21 07:09:00,
2014-01-21 02:14:00,61.5,57.6,30.03,West,270,0.0,0.0,87,0.00,,,0.00,VISReader,2014-01-21 07:14:00,
2014-01-21 02:19:00,61.5,57.6,30.03,West,270,0.0,0.0,87,0.00,,,0.00,VISReader,2014-01-21 07:19:00,
2014-01-21 02:25:00,61.5,57.6,30.02,West,270,0.0,0.0,87,0.00,,,0.00,VISReader,2014-01-21 07:25:00,
2014-01-21 02:30:00,61.3,57.4,30.02,West,270,0.0,0.0,87,0.00,,,0.00,VISReader,2014-01-21 07:30:00,
2014-01-21 02:35:00,61.3,57.4,30.02,West,270,0.0,0.0,87,0.00,,,0.00,VISReader,2014-01-21 07:35:00,
2014-01-21 02:40:00,61.2,57.3,30.02,West,270,0.0,0.0,87,0.00,,,0.00,VISReader,2014-01-21 07:40:00,
2014-01-21 02:45:00,61.2,57.3,30.02,West,270,0.0,0.0,87,0.00,,,0.00,VISReader,2014-01-21 07:45:00,
2014-01-21 02:50:00,61.2,57.3,30.01,West,270,0.0,0.0,87,0.00,,,0.00,VISReader,2014-01-21 07:50:00,
2014-01-21 02:55:00,61.2,57.3,30.01,SW,225,0.0,0.0,87,0.00,,,0.00,VISReader,2014-01-21 07:55:00,
2014-01-21 03:01:00,61.2,57.3,30.00,SSE,157,0.0,0.0,87,0.00,,,0.00,VISReader,2014-01-21 08:01:00,
2014-01-21 03:06:00,61.3,57.4,30.00,WSW,247,0.0,1.1,87,0.00,,,0.00,VISReader,2014-01-21 08:06:00,
2014-01-21 03:11:00,61.3,57.4,30.00,SW,225,0.0,1.1,87,0.00,,,0.00,VISReader,2014-01-21 08:11:00,
2014-01-21 03:16:00,61.2,57.3,30.00,SW,225,0.0,0.0,87,0.00,,,0.00,VISReader,2014-01-21 08:16:00,
2014-01-21 03:21:00,61.2,57.3,30.00,SW,225,0.0,0.0,87,0.00,,,0.00,VISReader,2014-01-21 08:21:00,
2014-01-21 03:27:00,61.2,57.3,30.00,West,270,0.0,0.0,87,0.00,,,0.00,VISReader,2014-01-21 08:27:00,
2014-01-21 03:32:00,61.2,57.3,30.00,NNW,337,0.0,0.0,87,0.00,,,0.00,VISReader,2014-01-21 08:32:00,
2014-01-21 03:37:00,61.2,57.3,30.00,SSE,157,0.0,0.0,87,0.00,,,0.00,VISReader,2014-01-21 08:37:00,
2014-01-21 03:42:00,61.2,57.3,30.00,SE,135,0.0,0.0,87,0.00,,,0.00,VISReader,2014-01-21 08:42:00,
2014-01-21 03:47:00,61.0,57.1,30.00,East,90,0.0,0.0,87,0.00,,,0.00,VISReader,2014-01-21 08:47:00,
2014-01-21 03:52:00,61.0,57.1,30.00,NNW,337,0.0,0.0,87,0.00,,,0.00,VISReader,2014-01-21 08:52:00,
2014-01-21 03:58:00,60.8,56.9,30.00,NNW,337,0.0,0.0,87,0.00,,,0.00,VISReader,2014-01-21 08:58:00,
2014-01-21 04:03:00,60.8,57.2,30.00,SSW,202,0.0,0.0,88,0.00,,,0.00,VISReader,2014-01-21 09:03:00,
2014-01-21 04:08:00,60.8,57.2,30.00,ESE,112,0.0,0.0,88,0.00,,,0.00,VISReader,2014-01-21 09:08:00,
2014-01-21 04:13:00,60.8,57.2,30.00,East,90,0.0,0.0,88,0.00,,,0.00,VISReader,2014-01-21 09:13:00,
2014-01-21 04:18:00,61.0,57.4,30.00,East,90,0.0,0.0,88,0.00,,,0.00,VISReader,2014-01-21 09:18:00,
2014-01-21 04:23:00,61.0,57.4,30.00,East,90,0.0,0.0,88,0.00,,,0.00,VISReader,2014-01-21 09:23:00,
2014-01-21 04:29:00,61.0,57.4,30.00,WSW,247,0.0,0.0,88,0.00,,,0.00,VISReader,2014-01-21 09:29:00,
2014-01-21 04:34:00,61.0,57.4,30.00,West,270,0.0,0.0,88,0.00,,,0.00,VISReader,2014-01-21 09:34:00,
2014-01-21 04:39:00,61.0,57.4,29.99,WNW,292,0.0,0.0,88,0.00,,,0.00,VISReader,2014-01-21 09:39:00,
2014-01-21 04:44:00,61.0,57.4,29.99,WNW,292,0.0,0.0,88,0.00,,,0.00,VISReader,2014-01-21 09:44:00,
2014-01-21 04:49:00,61.0,57.4,29.99,North,360,0.0,0.0,88,0.00,,,0.00,VISReader,2014-01-21 09:49:00,
2014-01-21 04:54:00,61.2,57.6,29.99,NE,45,0.0,0.0,88,0.00,,,0.00,VISReader,2014-01-21 09:54:00,
2014-01-21 05:00:00,61.2,57.6,30.00,East,90,0.0,0.0,88,0.00,,,0.00,VISReader,2014-01-21 10:00:00,
2014-01-21 05:05:00,61.3,57.7,30.00,West,270,0.0,0.0,88,0.00,,,0.00,VISReader,2014-01-21 10:05:00,
2014-01-21 05:10:00,61.3,57.7,30.00,ESE,112,0.0,0.0,88,0.00,,,0.00,VISReader,2014-01-21 10:10:00,
2014-01-21 05:18:00,61.3,57.7,30.00,WSW,247,0.0,0.0,88,0.00,,,0.00,VISReader,2014-01-21 10:18:00,
2014-01-21 05:23:00,61.5,57.6,30.00,WSW,247,0.0,0.0,87,0.00,,,0.00,VISReader,2014-01-21 10:23:00,
2014-01-21 05:28:00,61.5,57.6,30.00,WNW,292,0.0,0.0,87,0.00,,,0.00,VISReader,2014-01-21 10:28:00,
2014-01-21 05:34:00,61.7,57.8,30.00,West,270,0.0,0.0,87,0.00,,,0.00,VISReader,2014-01-21 10:34:00,
2014-01-21 05:39:00,61.7,57.5,30.00,West,270,0.0,0.0,86,0.00,,,0.00,VISReader,2014-01-21 10:39:00,
2014-01-21 05:44:00,61.7,57.5,30.00,West,270,0.0,0.0,86,0.00,,,0.00,VISReader,2014-01-21 10:44:00,
2014-01-21 05:49:00,61.7,57.5,30.00,West,270,0.0,0.0,86,0.00,,,0.00,VISReader,2014-01-21 10:49:00,
2014-01-21 05:55:00,61.7,57.5,30.00,West,270,0.0,0.0,86,0.00,,,0.00,VISReader,2014-01-21 10:55:00,
2014-01-21 06:00:00,61.7,57.5,30.00,West,270,0.0,0.0,86,0.00,,,0.00,VISReader,2014-01-21 11:00:00,
2014-01-21 06:05:00,61.7,57.5,30.00,West,270,0.0,0.0,86,0.00,,,0.00,VISReader,2014-01-21 11:05:00,
2014-01-21 06:11:00,61.7,57.5,30.00,West,270,0.0,0.0,86,0.00,,,0.00,VISReader,2014-01-21 11:11:00,
2014-01-21 06:16:00,61.7,57.5,30.00,West,270,0.0,0.0,86,0.00,,,0.00,VISReader,2014-01-21 11:16:00,
2014-01-21 06:21:00,61.9,57.7,30.00,WSW,247,0.0,0.0,86,0.00,,,0.00,VISReader,2014-01-21 11:21:00,
2014-01-21 06:26:00,61.9,57.7,30.00,WSW,247,0.0,0.0,86,0.00,,,0.00,VISReader,2014-01-21 11:26:00,
2014-01-21 06:31:00,61.9,57.7,30.00,WSW,247,0.0,0.0,86,0.00,,,0.00,VISReader,2014-01-21 11:31:00,
2014-01-21 06:36:00,61.9,57.7,30.00,WSW,247,0.0,0.0,86,0.00,,,0.00,VISReader,2014-01-21 11:36:00,
2014-01-21 06:42:00,62.1,57.9,30.00,WSW,247,0.0,0.0,86,0.00,,,0.00,VISReader,2014-01-21 11:42:00,
2014-01-21 06:47:00,62.1,57.9,30.00,WSW,247,0.0,0.0,86,0.00,,,0.00,VISReader,2014-01-21 11:47:00,
2014-01-21 06:52:00,62.1,57.9,30.00,SW,225,0.0,0.0,86,0.00,,,0.00,VISReader,2014-01-21 11:52:00,
2014-01-21 06:57:00,62.1,57.9,30.00,SW,225,0.0,0.0,86,0.00,,,0.00,VISReader,2014-01-21 11:57:00,
2014-01-21 07:02:00,62.2,58.6,30.00,SW,225,0.0,0.0,88,0.00,,,0.00,VISReader,2014-01-21 12:02:00,
2014-01-21 07:07:00,62.2,58.6,30.00,SW,225,0.0,0.0,88,0.00,,,0.00,VISReader,2014-01-21 12:07:00,
2014-01-21 07:13:00,62.2,58.6,30.00,SW,225,0.0,0.0,88,0.00,,,0.00,VISReader,2014-01-21 12:13:00,
2014-01-21 07:18:00,62.2,58.3,30.00,SW,225,0.0,0.0,87,0.00,,,0.00,VISReader,2014-01-21 12:18:00,
2014-01-21 07:23:00,62.2,58.3,30.00,West,270,0.0,0.0,87,0.00,,,0.00,VISReader,2014-01-21 12:23:00,
2014-01-21 07:28:00,62.2,58.3,30.00,WSW,247,0.0,0.0,87,0.00,,,0.00,VISReader,2014-01-21 12:28:00,
2014-01-21 07:33:00,62.2,58.3,30.00,SW,225,0.0,0.0,87,0.00,,,0.00,VISReader,2014-01-21 12:33:00,
2014-01-21 07:38:00,62.4,58.5,30.00,West,270,0.0,0.0,87,0.00,,,0.00,VISReader,2014-01-21 12:38:00,
2014-01-21 07:44:00,62.6,58.3,30.00,SW,225,0.0,0.0,86,0.00,,,0.00,VISReader,2014-01-21 12:44:00,
2014-01-21 07:49:00,62.8,58.5,30.00,SW,225,0.0,0.0,86,0.00,,,0.00,VISReader,2014-01-21 12:49:00,
2014-01-21 07:54:00,63.1,58.8,30.00,SSW,202,0.0,0.0,86,0.00,,,0.00,VISReader,2014-01-21 12:54:00,
2014-01-21 07:59:00,63.7,58.8,30.00,West,270,0.0,1.7,84,0.00,,,0.00,VISReader,2014-01-21 12:59:00,
2014-01-21 08:04:00,65.5,59.2,30.00,WNW,292,0.0,1.7,80,0.00,,,0.00,VISReader,2014-01-21 13:04:00,
2014-01-21 08:09:00,66.0,59.6,30.00,SSW,202,1.1,1.7,80,0.00,,,0.00,VISReader,2014-01-21 13:09:00,
2014-01-21 08:15:00,65.7,60.0,30.00,West,270,0.0,1.7,82,0.00,,,0.00,VISReader,2014-01-21 13:15:00,
2014-01-21 08:20:00,65.7,60.0,30.00,SE,135,0.0,1.7,82,0.00,,,0.00,VISReader,2014-01-21 13:20:00,
2014-01-21 08:25:00,65.8,60.1,30.00,West,270,1.1,1.7,82,0.00,,,0.00,VISReader,2014-01-21 13:25:00,
2014-01-21 08:30:00,66.7,60.7,30.00,WNW,292,1.1,1.7,81,0.00,,,0.00,VISReader,2014-01-21 13:30:00,
2014-01-21 08:35:00,66.9,60.9,30.00,ESE,112,1.7,2.2,81,0.00,,,0.00,VISReader,2014-01-21 13:35:00,
2014-01-21 08:40:00,66.9,60.9,30.00,NW,315,0.0,2.2,81,0.00,,,0.00,VISReader,2014-01-21 13:40:00,
2014-01-21 08:46:00,66.7,61.0,30.00,WNW,292,0.0,2.2,82,0.00,,,0.00,VISReader,2014-01-21 13:46:00,
2014-01-21 08:51:00,66.7,61.0,30.01,South,180,1.1,1.7,82,0.00,,,0.00,VISReader,2014-01-21 13:51:00,
2014-01-21 08:56:00,66.7,61.4,30.01,South,180,1.7,2.2,83,0.00,,,0.00,VISReader,2014-01-21 13:56:00,
2014-01-21 09:01:00,66.7,61.7,30.01,SW,225,1.1,2.2,84,0.00,,,0.00,VISReader,2014-01-21 14:01:00,
2014-01-21 09:06:00,66.7,61.7,30.01,NNW,337,0.0,2.7,84,0.00,,,0.00,VISReader,2014-01-21 14:06:00,
2014-01-21 09:11:00,66.6,61.9,30.02,NNE,22,0.0,2.7,85,0.00,,,0.00,VISReader,2014-01-21 14:11:00,
2014-01-21 09:17:00,66.6,61.9,30.02,NNE,22,1.7,2.7,85,0.00,,,0.00,VISReader,2014-01-21 14:17:00,
2014-01-21 09:22:00,66.4,62.1,30.02,WSW,247,1.1,2.7,86,0.00,,,0.00,VISReader,2014-01-21 14:22:00,
2014-01-21 09:27:00,66.6,62.3,30.02,South,180,2.2,2.2,86,0.00,,,0.00,VISReader,2014-01-21 14:27:00,
2014-01-21 09:32:00,66.6,62.3,30.02,North,360,1.7,2.7,86,0.00,,,0.00,VISReader,2014-01-21 14:32:00,
2014-01-21 09:37:00,66.9,62.6,30.02,SW,225,2.2,2.7,86,0.00,,,0.00,VISReader,2014-01-21 14:37:00,
2014-01-21 09:42:00,66.9,62.6,30.02,SSW,202,1.1,2.2,86,0.00,,,0.00,VISReader,2014-01-21 14:42:00,
2014-01-21 09:48:00,67.1,62.8,30.02,West,270,0.0,1.1,86,0.00,,,0.00,VISReader,2014-01-21 14:48:00,
2014-01-21 09:53:00,67.5,63.2,30.02,West,270,1.1,3.2,86,0.00,,,0.00,VISReader,2014-01-21 14:53:00,
2014-01-21 09:58:00,67.8,63.5,30.02,South,180,1.1,3.2,86,0.00,,,0.00,VISReader,2014-01-21 14:58:00,
2014-01-21 10:03:00,67.8,63.1,30.03,SSE,157,1.1,2.7,85,0.00,,,0.00,VISReader,2014-01-21 15:03:00,
2014-01-21 10:08:00,67.6,63.3,30.03,West,270,1.1,2.7,86,0.00,,,0.00,VISReader,2014-01-21 15:08:00,
2014-01-21 10:14:00,67.6,63.3,30.03,SSW,202,1.1,2.7,86,0.00,,,0.00,VISReader,2014-01-21 15:14:00,
2014-01-21 10:19:00,67.8,63.5,30.03,West,270,0.0,1.7,86,0.00,,,0.00,VISReader,2014-01-21 15:19:00,
2014-01-21 10:24:00,68.0,63.6,30.02,East,90,0.0,2.2,86,0.00,,,0.00,VISReader,2014-01-21 15:24:00,
2014-01-21 10:29:00,68.2,63.5,30.02,SSE,157,0.0,2.2,85,0.00,,,0.00,VISReader,2014-01-21 15:29:00,
2014-01-21 10:34:00,68.5,63.8,30.02,SW,225,1.1,2.2,85,0.00,,,0.00,VISReader,2014-01-21 15:34:00,
2014-01-21 10:39:00,68.4,63.4,30.02,WSW,247,0.0,2.2,84,0.00,,,0.00,VISReader,2014-01-21 15:39:00,
2014-01-21 10:45:00,68.0,63.0,30.02,NW,315,1.7,2.2,84,0.00,,,0.00,VISReader,2014-01-21 15:45:00,
2014-01-21 10:50:00,69.1,63.4,30.01,SSW,202,3.7,3.7,82,0.00,,,0.00,VISReader,2014-01-21 15:50:00,
2014-01-21 10:55:00,70.7,63.1,30.01,West,270,2.2,3.7,77,0.00,,,0.00,VISReader,2014-01-21 15:55:00,
2014-01-21 11:00:00,70.0,62.8,30.00,West,270,1.7,3.7,78,0.00,,,0.00,VISReader,2014-01-21 16:00:00,
2014-01-21 11:05:00,69.8,62.6,30.00,West,270,1.7,3.2,78,0.00,,,0.00,VISReader,2014-01-21 16:05:00,
2014-01-21 11:10:00,69.8,62.3,30.00,SW,225,1.1,2.2,77,0.00,,,0.00,VISReader,2014-01-21 16:10:00,
2014-01-21 11:16:00,69.4,61.9,30.00,WSW,247,1.1,2.7,77,0.00,,,0.00,VISReader,2014-01-21 16:16:00,
2014-01-21 11:21:00,69.4,61.9,30.00,West,270,2.2,3.2,77,0.00,,,0.00,VISReader,2014-01-21 16:21:00,
2014-01-21 11:26:00,69.4,61.9,29.99,SW,225,1.7,3.2,77,0.00,,,0.00,VISReader,2014-01-21 16:26:00,
2014-01-21 11:31:00,69.4,61.9,29.99,WSW,247,1.7,3.2,77,0.00,,,0.00,VISReader,2014-01-21 16:31:00,
2014-01-21 11:36:00,69.6,62.1,29.98,SSE,157,3.2,3.7,77,0.00,,,0.00,VISReader,2014-01-21 16:36:00,
2014-01-21 11:41:00,69.8,61.9,29.98,SSE,157,1.1,3.7,76,0.00,,,0.00,VISReader,2014-01-21 16:41:00,
2014-01-21 11:47:00,70.0,62.1,29.98,ESE,112,1.1,3.2,76,0.00,,,0.00,VISReader,2014-01-21 16:47:00,
2014-01-21 11:52:00,69.6,61.7,29.97,WNW,292,1.1,2.7,76,0.00,,,0.00,VISReader,2014-01-21 16:52:00,
2014-01-21 11:57:00,69.8,61.5,29.97,WNW,292,0.0,4.2,75,0.00,,,0.00,VISReader,2014-01-21 16:57:00,
2014-01-21 12:02:00,69.6,61.7,29.96,WSW,247,1.7,4.2,76,0.00,,,0.00,VISReader,2014-01-21 17:02:00,
2014-01-21 12:07:00,70.7,62.4,29.96,ESE,112,1.1,3.2,75,0.00,,,0.00,VISReader,2014-01-21 17:07:00,
2014-01-21 12:12:00,70.5,62.2,29.95,ENE,67,1.7,3.2,75,0.00,,,0.00,VISReader,2014-01-21 17:12:00,
2014-01-21 12:18:00,70.3,61.6,29.95,SW,225,2.2,3.2,74,0.00,,,0.00,VISReader,2014-01-21 17:18:00,
2014-01-21 12:23:00,70.5,61.4,29.95,East,90,0.0,3.2,73,0.00,,,0.00,VISReader,2014-01-21 17:23:00,
2014-01-21 12:28:00,71.1,62.0,29.95,West,270,2.2,3.2,73,0.00,,,0.00,VISReader,2014-01-21 17:28:00,
2014-01-21 12:33:00,71.2,61.3,29.95,SE,135,2.2,3.2,71,0.00,,,0.00,VISReader,2014-01-21 17:33:00,
2014-01-21 12:38:00,71.8,61.1,29.94,South,180,2.2,2.7,69,0.00,,,0.00,VISReader,2014-01-21 17:38:00,
2014-01-21 12:43:00,72.3,60.7,29.94,West,270,2.2,3.2,67,0.00,,,0.00,VISReader,2014-01-21 17:43:00,
2014-01-21 12:49:00,72.0,60.4,29.94,South,180,2.2,3.7,67,0.00,,,0.00,VISReader,2014-01-21 17:49:00,
2014-01-21 12:54:00,72.7,61.1,29.94,East,90,1.1,3.7,67,0.00,,,0.00,VISReader,2014-01-21 17:54:00,
2014-01-21 12:59:00,72.9,60.4,29.94,SSW,202,3.7,5.3,65,0.00,,,0.00,VISReader,2014-01-21 17:59:00,
2014-01-21 13:04:00,72.5,60.1,29.93,WSW,247,1.7,5.3,65,0.00,,,0.00,VISReader,2014-01-21 18:04:00,
2014-01-21 13:09:00,72.9,60.9,29.93,NW,315,2.2,2.7,66,0.00,,,0.00,VISReader,2014-01-21 18:09:00,
2014-01-21 13:14:00,72.9,60.4,29.92,SW,225,2.2,2.7,65,0.00,,,0.00,VISReader,2014-01-21 18:14:00,
2014-01-21 13:20:00,72.5,60.1,29.92,WSW,247,2.7,3.2,65,0.00,,,0.00,VISReader,2014-01-21 18:20:00,
2014-01-21 13:25:00,72.5,60.1,29.92,South,180,1.7,3.7,65,0.00,,,0.00,VISReader,2014-01-21 18:25:00,
2014-01-21 13:30:00,73.8,61.3,29.92,West,270,2.2,4.2,65,0.00,,,0.00,VISReader,2014-01-21 18:30:00,
2014-01-21 13:35:00,74.1,60.2,29.91,West,270,1.1,4.2,62,0.00,,,0.00,VISReader,2014-01-21 18:35:00,
2014-01-21 13:40:00,73.8,60.8,29.91,SW,225,2.2,5.3,64,0.00,,,0.00,VISReader,2014-01-21 18:40:00,
2014-01-21 13:46:00,73.4,60.9,29.91,SSW,202,3.2,5.3,65,0.00,,,0.00,VISReader,2014-01-21 18:46:00,
2014-01-21 13:51:00,73.4,61.3,29.90,WSW,247,2.7,4.2,66,0.00,,,0.00,VISReader,2014-01-21 18:51:00,
2014-01-21 13:56:00,72.9,61.3,29.90,West,270,1.1,4.2,67,0.00,,,0.00,VISReader,2014-01-21 18:56:00,
2014-01-21 14:01:00,73.0,61.0,29.89,SSW,202,2.7,4.7,66,0.00,,,0.00,VISReader,2014-01-21 19:01:00,
2014-01-21 14:06:00,72.9,60.9,29.89,WSW,247,1.7,4.7,66,0.00,,,0.00,VISReader,2014-01-21 19:06:00,
2014-01-21 14:11:00,73.6,61.1,29.89,ESE,112,1.1,4.2,65,0.00,,,0.00,VISReader,2014-01-21 19:11:00,
2014-01-21 14:17:00,74.1,60.7,29.89,WNW,292,2.7,3.7,63,0.00,,,0.00,VISReader,2014-01-21 19:17:00,
2014-01-21 14:22:00,74.7,60.8,29.89,WSW,247,1.7,4.2,62,0.00,,,0.00,VISReader,2014-01-21 19:22:00,
2014-01-21 14:27:00,75.0,60.6,29.89,SSE,157,1.7,4.2,61,0.00,,,0.00,VISReader,2014-01-21 19:27:00,
2014-01-21 14:32:00,75.0,60.6,29.89,WSW,247,2.7,3.2,61,0.00,,,0.00,VISReader,2014-01-21 19:32:00,
2014-01-21 14:37:00,72.9,60.0,29.88,SSW,202,3.7,3.7,64,0.00,,,0.00,VISReader,2014-01-21 19:37:00,
2014-01-21 14:42:00,72.9,60.0,29.88,NE,45,2.7,4.2,64,0.00,,,0.00,VISReader,2014-01-21 19:42:00,
2014-01-21 14:48:00,72.9,60.0,29.89,WSW,247,0.0,4.2,64,0.00,,,0.00,VISReader,2014-01-21 19:48:00,
2014-01-21 14:53:00,73.4,60.9,29.89,ESE,112,2.2,3.2,65,0.00,,,0.00,VISReader,2014-01-21 19:53:00,
2014-01-21 14:58:00,74.1,61.1,29.89,NNE,22,2.2,2.7,64,0.00,,,0.00,VISReader,2014-01-21 19:58:00,
2014-01-21 15:03:00,74.1,61.6,29.88,SW,225,0.0,3.2,65,0.00,,,0.00,VISReader,2014-01-21 20:03:00,
2014-01-21 15:08:00,73.4,60.9,29.88,North,360,4.2,4.2,65,0.00,,,0.00,VISReader,2014-01-21 20:08:00,
2014-01-21 15:13:00,73.4,58.7,29.88,ENE,67,2.7,4.7,60,0.00,,,0.00,VISReader,2014-01-21 20:13:00,
2014-01-21 15:19:00,73.2,58.0,29.88,North,360,1.7,4.7,59,0.00,,,0.00,VISReader,2014-01-21 20:19:00,
2014-01-21 15:24:00,72.9,57.7,29.88,West,270,1.7,3.7,59,0.00,,,0.00,VISReader,2014-01-21 20:24:00,
2014-01-21 15:29:00,72.3,57.6,29.88,WSW,247,2.7,3.7,60,0.00,,,0.00,VISReader,2014-01-21 20:29:00,
2014-01-21 15:34:00,72.5,58.3,29.88,WSW,247,2.2,3.7,61,0.00,,,0.00,VISReader,2014-01-21 20:34:00,
2014-01-21 15:39:00,72.1,57.9,29.88,WSW,247,1.7,3.7,61,0.00,,,0.00,VISReader,2014-01-21 20:39:00,
2014-01-21 15:44:00,71.6,57.4,29.88,WNW,292,3.7,3.7,61,0.00,,,0.00,VISReader,2014-01-21 20:44:00,
2014-01-21 15:50:00,71.4,57.2,29.88,South,180,1.7,4.2,61,0.00,,,0.00,VISReader,2014-01-21 20:50:00,
2014-01-21 15:55:00,71.1,57.0,29.88,SW,225,1.7,4.2,61,0.00,,,0.00,VISReader,2014-01-21 20:55:00,
2014-01-21 16:00:00,71.2,57.5,29.88,West,270,0.0,3.2,62,0.00,,,0.00,VISReader,2014-01-21 21:00:00,
2014-01-21 16:05:00,71.1,57.0,29.88,ESE,112,2.2,2.7,61,0.00,,,0.00,VISReader,2014-01-21 21:05:00,
2014-01-21 16:10:00,70.5,57.3,29.88,WSW,247,2.7,4.2,63,0.00,,,0.00,VISReader,2014-01-21 21:10:00,
2014-01-21 16:15:00,70.2,57.4,29.88,West,270,2.2,4.2,64,0.00,,,0.00,VISReader,2014-01-21 21:15:00,
2014-01-21 16:21:00,70.0,57.7,29.88,SSE,157,2.7,4.7,65,0.00,,,0.00,VISReader,2014-01-21 21:21:00,
2014-01-21 16:26:00,69.8,57.9,29.88,WSW,247,2.7,4.7,66,0.00,,,0.00,VISReader,2014-01-21 21:26:00,
2014-01-21 16:31:00,69.8,57.9,29.88,SW,225,0.0,4.7,66,0.00,,,0.00,VISReader,2014-01-21 21:31:00,
2014-01-21 16:36:00,69.6,58.1,29.88,South,180,1.1,3.2,67,0.00,,,0.00,VISReader,2014-01-21 21:36:00,
2014-01-21 16:41:00,69.6,58.1,29.88,WNW,292,1.1,2.7,67,0.00,,,0.00,VISReader,2014-01-21 21:41:00,
2014-01-21 16:46:00,69.4,58.0,29.88,ENE,67,1.7,3.2,67,0.00,,,0.00,VISReader,2014-01-21 21:46:00,
2014-01-21 16:52:00,69.1,57.7,29.89,WSW,247,1.7,4.7,67,0.00,,,0.00,VISReader,2014-01-21 21:52:00,
2014-01-21 16:57:00,69.1,58.1,29.89,West,270,1.1,4.7,68,0.00,,,0.00,VISReader,2014-01-21 21:57:00,
2014-01-21 17:02:00,68.9,57.9,29.89,SSW,202,2.7,4.2,68,0.00,,,0.00,VISReader,2014-01-21 22:02:00,
2014-01-21 17:07:00,68.7,57.7,29.89,South,180,1.1,4.2,68,0.00,,,0.00,VISReader,2014-01-21 22:07:00,
2014-01-21 17:12:00,68.5,57.5,29.90,West,270,1.1,3.2,68,0.00,,,0.00,VISReader,2014-01-21 22:12:00,
2014-01-21 17:18:00,68.4,57.8,29.90,South,180,2.2,3.2,69,0.00,,,0.00,VISReader,2014-01-21 22:18:00,
2014-01-21 17:23:00,68.0,58.2,29.90,South,180,2.2,3.2,71,0.00,,,0.00,VISReader,2014-01-21 22:23:00,
2014-01-21 17:28:00,67.6,57.9,29.90,SW,225,1.7,4.2,71,0.00,,,0.00,VISReader,2014-01-21 22:28:00,
2014-01-21 17:33:00,67.5,57.8,29.90,ESE,112,1.7,3.2,71,0.00,,,0.00,VISReader,2014-01-21 22:33:00,
2014-01-21 17:38:00,67.3,58.0,29.90,SSW,202,2.2,4.2,72,0.00,,,0.00,VISReader,2014-01-21 22:38:00,
2014-01-21 17:43:00,67.3,58.0,29.90,SE,135,1.1,4.2,72,0.00,,,0.00,VISReader,2014-01-21 22:43:00,
2014-01-21 17:49:00,67.1,57.8,29.89,SSW,202,2.7,2.7,72,0.00,,,0.00,VISReader,2014-01-21 22:49:00,
2014-01-21 17:54:00,67.1,58.1,29.89,ESE,112,1.1,3.2,73,0.00,,,0.00,VISReader,2014-01-21 22:54:00,
2014-01-21 17:59:00,66.7,57.8,29.89,WSW,247,1.7,3.2,73,0.00,,,0.00,VISReader,2014-01-21 22:59:00,
2014-01-21 18:04:00,66.6,57.7,29.89,South,180,1.1,3.2,73,0.00,,,0.00,VISReader,2014-01-21 23:04:00,
2014-01-21 18:09:00,66.4,57.9,29.89,WSW,247,1.7,2.2,74,0.00,,,0.00,VISReader,2014-01-21 23:09:00,
2014-01-21 18:14:00,66.2,57.7,29.90,West,270,1.7,2.2,74,0.00,,,0.00,VISReader,2014-01-21 23:14:00,
2014-01-21 18:20:00,66.0,57.5,29.90,West,270,1.7,2.2,74,0.00,,,0.00,VISReader,2014-01-21 23:20:00,
2014-01-21 18:25:00,65.8,57.3,29.90,South,180,1.7,2.2,74,0.00,,,0.00,VISReader,2014-01-21 23:25:00,
2014-01-21 18:30:00,65.7,57.2,29.90,SW,225,1.7,2.7,74,0.00,,,0.00,VISReader,2014-01-21 23:30:00,
2014-01-21 18:35:00,65.5,57.0,29.90,West,270,1.7,2.7,74,0.00,,,0.00,VISReader,2014-01-21 23:35:00,
2014-01-21 18:40:00,65.3,56.8,29.90,West,270,1.7,1.7,74,0.00,,,0.00,VISReader,2014-01-21 23:40:00,
2014-01-21 18:45:00,65.3,57.2,29.90,SE,135,0.0,1.7,75,0.00,,,0.00,VISReader,2014-01-21 23:45:00,
2014-01-21 18:51:00,65.1,57.0,29.90,ESE,112,0.0,2.2,75,0.00,,,0.00,VISReader,2014-01-21 23:51:00,
2014-01-21 18:56:00,64.9,57.1,29.90,SW,225,1.1,3.7,76,0.00,,,0.00,VISReader,2014-01-21 23:56:00,
2014-01-21 19:01:00,64.9,57.1,29.90,West,270,2.2,3.7,76,0.00,,,0.00,VISReader,2014-01-22 00:01:00,
2014-01-21 19:06:00,64.8,57.4,29.90,SSE,157,1.1,2.7,77,0.00,,,0.00,VISReader,2014-01-22 00:06:00,
2014-01-21 19:11:00,64.6,57.9,29.90,West,270,1.7,2.7,79,0.00,,,0.00,VISReader,2014-01-22 00:11:00,
2014-01-21 19:16:00,64.4,57.7,29.90,West,270,2.7,2.7,79,0.00,,,0.00,VISReader,2014-01-22 00:16:00,
2014-01-21 19:22:00,64.2,57.9,29.90,West,270,1.1,2.7,80,0.00,,,0.00,VISReader,2014-01-22 00:22:00,
2014-01-21 19:27:00,64.0,58.4,29.90,NNW,337,1.7,2.7,82,0.00,,,0.00,VISReader,2014-01-22 00:27:00,
2014-01-21 19:32:00,63.9,58.3,29.90,NE,45,1.1,2.7,82,0.00,,,0.00,VISReader,2014-01-22 00:32:00,
2014-01-21 19:37:00,63.7,58.4,29.91,SW,225,1.1,2.7,83,0.00,,,0.00,VISReader,2014-01-22 00:37:00,
2014-01-21 19:42:00,63.7,58.8,29.91,East,90,0.0,2.7,84,0.00,,,0.00,VISReader,2014-01-22 00:42:00,
2014-01-21 19:48:00,63.5,58.9,29.91,South,180,0.0,2.2,85,0.00,,,0.00,VISReader,2014-01-22 00:48:00,
2014-01-21 19:53:00,63.3,59.0,29.91,SE,135,1.1,2.2,86,0.00,,,0.00,VISReader,2014-01-22 00:53:00,
2014-01-21 19:58:00,63.1,59.2,29.91,WSW,247,1.1,2.2,87,0.00,,,0.00,VISReader,2014-01-22 00:58:00,
2014-01-21 20:03:00,63.1,59.2,29.90,ENE,67,1.1,2.2,87,0.00,,,0.00,VISReader,2014-01-22 01:03:00,
2014-01-21 20:08:00,63.0,59.4,29.90,SSW,202,1.1,2.7,88,0.00,,,0.00,VISReader,2014-01-22 01:08:00,
2014-01-21 20:13:00,62.8,59.2,29.91,SSE,157,0.0,2.7,88,0.00,,,0.00,VISReader,2014-01-22 01:13:00,
2014-01-21 20:18:00,62.8,59.5,29.91,SSW,202,1.1,2.2,89,0.00,,,0.00,VISReader,2014-01-22 01:18:00,
2014-01-21 20:24:00,62.6,59.3,29.91,NNW,337,0.0,2.2,89,0.00,,,0.00,VISReader,2014-01-22 01:24:00,
2014-01-21 20:29:00,62.4,59.1,29.91,West,270,0.0,1.1,89,0.00,,,0.00,VISReader,2014-01-22 01:29:00,
2014-01-21 20:34:00,62.4,59.4,29.91,South,180,0.0,1.7,90,0.00,,,0.00,VISReader,2014-01-22 01:34:00,
2014-01-21 20:39:00,62.2,59.2,29.91,SSE,157,0.0,1.7,90,0.00,,,0.00,VISReader,2014-01-22 01:39:00,
2014-01-21 20:44:00,62.2,59.2,29.91,NNE,22,0.0,2.7,90,0.00,,,0.00,VISReader,2014-01-22 01:44:00,
2014-01-21 20:50:00,62.1,59.1,29.91,SSW,202,1.1,2.7,90,0.00,,,0.00,VISReader,2014-01-22 01:50:00,
2014-01-21 20:55:00,62.1,59.4,29.91,South,180,1.1,2.2,91,0.00,,,0.00,VISReader,2014-01-22 01:55:00,
2014-01-21 21:00:00,62.1,59.4,29.91,SSE,157,0.0,2.2,91,0.00,,,0.00,VISReader,2014-01-22 02:00:00,
2014-01-21 21:05:00,61.9,59.2,29.91,NNE,22,0.0,2.2,91,0.00,,,0.00,VISReader,2014-01-22 02:05:00,
2014-01-21 21:10:00,61.9,59.2,29.91,SSE,157,2.2,2.7,91,0.00,,,0.00,VISReader,2014-01-22 02:10:00,
2014-01-21 21:15:00,61.9,59.2,29.91,South,180,0.0,2.7,91,0.00,,,0.00,VISReader,2014-01-22 02:15:00,
2014-01-21 21:21:00,61.9,59.2,29.91,WSW,247,1.1,3.7,91,0.00,,,0.00,VISReader,2014-01-22 02:21:00,
2014-01-21 21:26:00,61.7,59.0,29.91,SW,225,0.0,3.7,91,0.00,,,0.00,VISReader,2014-01-22 02:26:00,
2014-01-21 21:31:00,61.7,59.0,29.91,SSW,202,1.7,3.2,91,0.00,,,0.00,VISReader,2014-01-22 02:31:00,
2014-01-21 21:36:00,61.7,59.0,29.91,SSE,157,1.1,2.7,91,0.00,,,0.00,VISReader,2014-01-22 02:36:00,
2014-01-21 21:41:00,61.7,59.0,29.91,WNW,292,1.1,2.7,91,0.00,,,0.00,VISReader,2014-01-22 02:41:00,
2014-01-21 21:46:00,61.7,59.3,29.91,North,360,0.0,2.2,92,0.00,,,0.00,VISReader,2014-01-22 02:46:00,
2014-01-21 21:52:00,61.7,59.3,29.91,SSW,202,0.0,2.2,92,0.00,,,0.00,VISReader,2014-01-22 02:52:00,
2014-01-21 21:57:00,61.5,59.2,29.91,SW,225,3.2,3.2,92,0.00,,,0.00,VISReader,2014-01-22 02:57:00,
2014-01-21 22:02:00,61.7,59.3,29.91,WNW,292,1.7,4.2,92,0.00,,,0.00,VISReader,2014-01-22 03:02:00,
2014-01-21 22:07:00,61.7,59.3,29.91,SSW,202,1.7,4.2,92,0.00,,,0.00,VISReader,2014-01-22 03:07:00,
2014-01-21 22:12:00,61.7,59.3,29.91,NW,315,1.7,3.7,92,0.00,,,0.00,VISReader,2014-01-22 03:12:00,
2014-01-21 22:17:00,61.7,59.3,29.91,West,270,0.0,3.2,92,0.00,,,0.00,VISReader,2014-01-22 03:17:00,
2014-01-21 22:23:00,61.7,59.7,29.91,WSW,247,1.7,2.7,93,0.00,,,0.00,VISReader,2014-01-22 03:23:00,
2014-01-21 22:28:00,61.9,59.9,29.91,SW,225,1.1,2.7,93,0.00,,,0.00,VISReader,2014-01-22 03:28:00,
2014-01-21 22:33:00,61.9,59.9,29.91,SE,135,0.0,2.7,93,0.00,,,0.00,VISReader,2014-01-22 03:33:00,
2014-01-21 22:38:00,61.9,59.9,29.91,West,270,1.7,2.2,93,0.00,,,0.00,VISReader,2014-01-22 03:38:00,
2014-01-21 22:43:00,61.9,59.9,29.91,SSW,202,0.0,2.2,93,0.00,,,0.00,VISReader,2014-01-22 03:43:00,
2014-01-21 22:49:00,61.9,59.9,29.91,SSW,202,1.7,2.2,93,0.00,,,0.00,VISReader,2014-01-22 03:49:00,
2014-01-21 22:54:00,61.9,59.9,29.91,South,180,1.7,2.7,93,0.00,,,0.00,VISReader,2014-01-22 03:54:00,
2014-01-21 22:59:00,61.9,60.2,29.90,NNE,22,1.7,2.7,94,0.00,,,0.00,VISReader,2014-01-22 03:59:00,
2014-01-21 23:04:00,61.9,60.2,29.90,SW,225,2.2,2.7,94,0.00,,,0.00,VISReader,2014-01-22 04:04:00,
2014-01-21 23:09:00,62.1,60.4,29.90,ESE,112,1.1,2.7,94,0.00,,,0.00,VISReader,2014-01-22 04:09:00,
2014-01-21 23:14:00,62.1,60.4,29.90,SW,225,1.7,2.7,94,0.00,,,0.00,VISReader,2014-01-22 04:14:00,
2014-01-21 23:19:00,62.1,60.4,29.90,South,180,0.0,2.7,94,0.00,,,0.00,VISReader,2014-01-22 04:19:00,
2014-01-21 23:25:00,62.1,60.4,29.90,SSW,202,2.2,2.7,94,0.00,,,0.00,VISReader,2014-01-22 04:25:00,
2014-01-21 23:30:00,62.1,60.6,29.90,SW,225,2.2,2.2,95,0.00,,,0.00,VISReader,2014-01-22 04:30:00,
2014-01-21 23:35:00,62.1,60.6,29.90,WSW,247,0.0,2.2,95,0.00,,,0.00,VISReader,2014-01-22 04:35:00,
2014-01-21 23:40:00,61.9,60.5,29.89,WSW,247,0.0,2.7,95,0.00,,,0.00,VISReader,2014-01-22 04:40:00,
2014-01-21 23:45:00,61.9,60.5,29.89,WNW,292,0.0,2.7,95,0.00,,,0.00,VISReader,2014-01-22 04:45:00,
2014-01-21 23:50:00,61.9,60.5,29.89,West,270,1.7,3.7,95,0.00,,,0.00,VISReader,2014-01-22 04:50:00,
2014-01-21 23:56:00,61.9,60.7,29.89,SW,225,3.7,3.7,96,0.00,,,0.00,VISReader,2014-01-22 04:56:00,